createdAt,value
2017-05-02T00:00:30.535Z,1010.24
2017-05-02T00:01:11.187Z,1010.2
2017-05-02T00:01:51.943Z,1010.23
2017-05-02T00:02:32.597Z,1010.22
2017-05-02T00:03:13.247Z,1010.24
2017-05-02T00:03:53.903Z,1010.22
2017-05-02T00:04:34.551Z,1010.2
2017-05-02T00:05:15.205Z,1010.19
2017-05-02T00:05:55.858Z,1010.2
2017-05-02T00:06:36.514Z,1010.24
2017-05-02T00:07:17.163Z,1010.21
2017-05-02T00:07:57.821Z,1010.21
2017-05-02T00:08:38.468Z,1010.23
2017-05-02T00:09:19.124Z,1010.19
2017-05-02T00:09:59.782Z,1010.18
2017-05-02T00:10:40.341Z,1010.22
2017-05-02T00:11:21.053Z,1010.21
2017-05-02T00:12:01.776Z,1010.21
2017-05-02T00:12:42.417Z,1010.24
2017-05-02T00:13:22.992Z,1010.22
2017-05-02T00:14:03.667Z,1010.23
2017-05-02T00:14:44.348Z,1010.23
2017-05-02T00:15:25.002Z,1010.23
2017-05-02T00:16:05.595Z,1010.18
2017-05-02T00:16:46.269Z,1010.23
2017-05-02T00:17:26.959Z,1010.2
2017-05-02T00:18:07.613Z,1010.23
2017-05-02T00:18:48.185Z,1010.25
2017-05-02T00:19:28.878Z,1010.23
2017-05-02T00:20:09.569Z,1010.23
2017-05-02T00:20:50.238Z,1010.23
2017-05-02T00:21:30.924Z,1010.22
2017-05-02T00:22:11.626Z,1010.21
2017-05-02T00:22:52.296Z,1010.21
2017-05-02T00:23:32.945Z,1010.19
2017-05-02T00:24:13.523Z,1010.2
2017-05-02T00:24:54.193Z,1010.17
2017-05-02T00:25:34.896Z,1010.16
2017-05-02T00:26:15.464Z,1010.16
2017-05-02T00:26:56.104Z,1010.13
2017-05-02T00:27:36.749Z,1010.13
2017-05-02T00:28:17.354Z,1010.14
2017-05-02T00:28:58.064Z,1010.14
2017-05-02T00:29:38.713Z,1010.15
2017-05-02T00:30:19.291Z,1010.13
2017-05-02T00:31:00.018Z,1010.16
2017-05-02T00:31:40.681Z,1010.14
2017-05-02T00:32:21.323Z,1010.15
2017-05-02T00:33:01.982Z,1010.11
2017-05-02T00:33:42.630Z,1010.1
2017-05-02T00:34:23.293Z,1010.12
2017-05-02T00:35:03.963Z,1010.15
2017-05-02T00:35:44.586Z,1010.11
2017-05-02T00:36:25.151Z,1010.1
2017-05-02T00:37:05.851Z,1010.07
2017-05-02T00:37:46.556Z,1010.08
2017-05-02T00:38:27.203Z,1010.08
2017-05-02T00:39:07.794Z,1010.05
2017-05-02T00:39:48.587Z,1010.04
2017-05-02T00:40:29.270Z,1010.06
2017-05-02T00:41:10.085Z,1010.02
2017-05-02T00:41:50.589Z,1010.04
2017-05-02T00:42:31.320Z,1010.02
2017-05-02T00:43:12.017Z,1010.02
2017-05-02T00:43:53.665Z,1009.98
2017-05-02T00:44:36.359Z,1009.97
2017-05-02T00:45:17.012Z,1009.98
2017-05-02T00:45:57.684Z,1009.94
2017-05-02T00:46:38.280Z,1009.95
2017-05-02T00:47:18.961Z,1009.93
2017-05-02T00:47:59.625Z,1009.92
2017-05-02T00:48:40.193Z,1009.92
2017-05-02T00:49:20.827Z,1009.91
2017-05-02T00:50:01.483Z,1009.9
2017-05-02T00:50:42.055Z,1009.92
2017-05-02T00:51:23.708Z,1009.9
2017-05-02T00:52:04.363Z,1009.88
2017-05-02T00:52:44.941Z,1009.88
2017-05-02T00:53:25.662Z,1009.88
2017-05-02T00:54:06.326Z,1009.89
2017-05-02T00:54:46.903Z,1009.9
2017-05-02T00:55:27.629Z,1009.8
2017-05-02T00:56:08.284Z,1009.85
2017-05-02T00:56:48.905Z,1009.85
2017-05-02T00:57:30.982Z,1009.84
2017-05-02T00:58:11.669Z,1009.82
2017-05-02T00:58:52.330Z,1009.82
2017-05-02T00:59:32.900Z,1009.77
2017-05-02T01:00:13.999Z,1009.77
2017-05-02T01:00:54.711Z,1009.73
2017-05-02T01:01:36.371Z,1009.78
2017-05-02T01:02:16.941Z,1009.74
2017-05-02T01:02:57.986Z,1009.74
2017-05-02T01:03:38.629Z,1009.78
2017-05-02T01:04:20.312Z,1009.72
2017-05-02T01:05:00.877Z,1009.75
2017-05-02T01:05:42.600Z,1009.73
2017-05-02T01:06:24.275Z,1009.74
2017-05-02T01:07:04.923Z,1009.69
2017-05-02T01:07:47.338Z,1009.67
2017-05-02T01:08:28.179Z,1009.73
2017-05-02T01:09:08.833Z,1009.72
2017-05-02T01:09:49.479Z,1009.69
2017-05-02T01:10:30.139Z,1009.71
2017-05-02T01:11:10.846Z,1009.72
2017-05-02T01:11:51.458Z,1009.72
2017-05-02T01:12:32.133Z,1009.72
2017-05-02T01:13:12.805Z,1009.74
2017-05-02T01:13:53.371Z,1009.71
2017-05-02T01:14:34.102Z,1009.72
2017-05-02T01:15:14.756Z,1009.7
2017-05-02T01:15:55.406Z,1009.66
2017-05-02T01:16:36.166Z,1009.67
2017-05-02T01:17:16.818Z,1009.63
2017-05-02T01:17:57.465Z,1009.64
2017-05-02T01:18:38.126Z,1009.63
2017-05-02T01:19:18.872Z,1009.59
2017-05-02T01:19:59.632Z,1009.63
2017-05-02T01:20:40.224Z,1009.62
2017-05-02T01:21:20.996Z,1009.61
2017-05-02T01:22:01.705Z,1009.58
2017-05-02T01:22:42.449Z,1009.57
2017-05-02T01:23:23.006Z,1009.57
2017-05-02T01:24:03.795Z,1009.6
2017-05-02T01:24:44.517Z,1009.58
2017-05-02T01:25:25.188Z,1009.61
2017-05-02T01:26:05.761Z,1009.62
2017-05-02T01:26:46.443Z,1009.6
2017-05-02T01:27:27.123Z,1009.58
2017-05-02T01:28:07.770Z,1009.61
2017-05-02T01:28:48.349Z,1009.64
2017-05-02T01:29:28.939Z,1009.63
2017-05-02T01:30:09.621Z,1009.67
2017-05-02T01:30:50.283Z,1009.62
2017-05-02T01:31:30.843Z,1009.63
2017-05-02T01:32:11.549Z,1009.65
2017-05-02T01:32:52.271Z,1009.65
2017-05-02T01:33:33.015Z,1009.64
2017-05-02T01:34:13.569Z,1009.68
2017-05-02T01:34:54.255Z,1009.66
2017-05-02T01:35:34.957Z,1009.64
2017-05-02T01:36:15.607Z,1009.67
2017-05-02T01:36:56.168Z,1009.63
2017-05-02T01:37:36.807Z,1009.64
2017-05-02T01:38:17.569Z,1009.63
2017-05-02T01:38:58.135Z,1009.65
2017-05-02T01:39:38.876Z,1009.62
2017-05-02T01:40:19.522Z,1009.67
2017-05-02T01:41:00.182Z,1009.64
2017-05-02T01:41:40.825Z,1009.65
2017-05-02T01:42:21.487Z,1009.66
2017-05-02T01:43:02.240Z,1009.62
2017-05-02T01:43:42.886Z,1009.62
2017-05-02T01:44:23.548Z,1009.66
2017-05-02T01:45:04.202Z,1009.64
2017-05-02T01:45:45.260Z,1009.58
2017-05-02T01:46:26.017Z,1009.57
2017-05-02T01:47:06.667Z,1009.6
2017-05-02T01:47:47.323Z,1009.59
2017-05-02T01:48:27.973Z,1009.53
2017-05-02T01:49:08.626Z,1009.57
2017-05-02T01:49:49.283Z,1009.58
2017-05-02T01:50:29.853Z,1009.55
2017-05-02T01:51:10.582Z,1009.59
2017-05-02T01:51:51.656Z,1009.6
2017-05-02T01:52:32.304Z,1009.56
2017-05-02T01:53:12.885Z,1009.57
2017-05-02T01:53:53.559Z,1009.53
2017-05-02T01:54:34.258Z,1009.55
2017-05-02T01:55:14.911Z,1009.52
2017-05-02T01:55:55.463Z,1009.56
2017-05-02T01:56:36.117Z,1009.56
2017-05-02T01:57:16.768Z,1009.53
2017-05-02T01:57:57.747Z,1009.51
2017-05-02T01:58:38.435Z,1009.52
2017-05-02T01:59:19.138Z,1009.55
2017-05-02T01:59:59.714Z,1009.56
2017-05-02T02:00:40.381Z,1009.51
2017-05-02T02:01:21.097Z,1009.57
2017-05-02T02:02:01.770Z,1009.55
2017-05-02T02:02:42.404Z,1009.56
2017-05-02T02:03:23.058Z,1009.56
2017-05-02T02:04:03.809Z,1009.59
2017-05-02T02:04:44.467Z,1009.57
2017-05-02T02:05:25.116Z,1009.59
2017-05-02T02:06:05.877Z,1009.52
2017-05-02T02:06:46.466Z,1009.57
2017-05-02T02:07:27.176Z,1009.56
2017-05-02T02:08:07.830Z,1009.55
2017-05-02T02:08:48.590Z,1009.58
2017-05-02T02:09:29.244Z,1009.56
2017-05-02T02:10:09.890Z,1009.56
2017-05-02T02:10:50.472Z,1009.57
2017-05-02T02:11:31.139Z,1009.55
2017-05-02T02:12:11.876Z,1009.53
2017-05-02T02:12:52.502Z,1009.55
2017-05-02T02:13:33.074Z,1009.53
2017-05-02T02:14:13.774Z,1009.53
2017-05-02T02:14:54.466Z,1009.53
2017-05-02T02:15:35.118Z,1009.5
2017-05-02T02:16:15.710Z,1009.53
2017-05-02T02:16:56.366Z,1009.54
2017-05-02T02:17:37.080Z,1009.52
2017-05-02T02:18:17.729Z,1009.54
2017-05-02T02:18:58.299Z,1009.57
2017-05-02T02:19:38.987Z,1009.53
2017-05-02T02:20:19.693Z,1009.56
2017-05-02T02:21:00.443Z,1009.57
2017-05-02T02:21:41.509Z,1009.52
2017-05-02T02:22:22.264Z,1009.56
2017-05-02T02:23:03.024Z,1009.54
2017-05-02T02:23:43.671Z,1009.57
2017-05-02T02:24:24.330Z,1009.55
2017-05-02T02:25:05.078Z,1009.56
2017-05-02T02:25:45.630Z,1009.54
2017-05-02T02:26:26.293Z,1009.56
2017-05-02T02:27:07.041Z,1009.54
2017-05-02T02:27:47.627Z,1009.52
2017-05-02T02:28:28.350Z,1009.5
2017-05-02T02:29:08.996Z,1009.55
2017-05-02T02:29:49.613Z,1009.55
2017-05-02T02:30:30.314Z,1009.51
2017-05-02T02:31:11.060Z,1009.54
2017-05-02T02:31:51.676Z,1009.52
2017-05-02T02:32:32.368Z,1009.5
2017-05-02T02:33:13.124Z,1009.5
2017-05-02T02:33:53.701Z,1009.45
2017-05-02T02:34:34.430Z,1009.48
2017-05-02T02:35:15.184Z,1009.47
2017-05-02T02:35:55.761Z,1009.47
2017-05-02T02:36:36.507Z,1009.47
2017-05-02T02:37:17.246Z,1009.44
2017-05-02T02:37:57.810Z,1009.45
2017-05-02T02:38:38.552Z,1009.44
2017-05-02T02:39:19.306Z,1009.42
2017-05-02T02:39:59.887Z,1009.47
2017-05-02T02:40:40.611Z,1009.44
2017-05-02T02:41:21.381Z,1009.45
2017-05-02T02:42:02.121Z,1009.45
2017-05-02T02:42:42.781Z,1009.41
2017-05-02T02:43:23.567Z,1009.4
2017-05-02T02:44:04.287Z,1009.47
2017-05-02T02:44:45.049Z,1009.46
2017-05-02T02:45:25.696Z,1009.45
2017-05-02T02:46:06.453Z,1009.48
2017-05-02T02:46:47.208Z,1009.42
2017-05-02T02:47:27.892Z,1009.46
2017-05-02T02:48:08.513Z,1009.46
2017-05-02T02:48:49.270Z,1009.46
2017-05-02T02:49:29.921Z,1009.49
2017-05-02T02:50:10.671Z,1009.51
2017-05-02T02:50:51.331Z,1009.43
2017-05-02T02:51:31.906Z,1009.47
2017-05-02T02:52:12.715Z,1009.46
2017-05-02T02:52:53.393Z,1009.49
2017-05-02T02:53:33.970Z,1009.49
2017-05-02T02:54:14.693Z,1009.45
2017-05-02T02:54:55.458Z,1009.48
2017-05-02T02:55:36.030Z,1009.41
2017-05-02T02:56:16.867Z,1009.44
2017-05-02T02:56:57.609Z,1009.44
2017-05-02T02:57:38.266Z,1009.42
2017-05-02T02:58:19.021Z,1009.44
2017-05-02T02:58:59.808Z,1009.42
2017-05-02T02:59:40.527Z,1009.45
2017-05-02T03:00:21.294Z,1009.43
2017-05-02T03:01:02.044Z,1009.42
2017-05-02T03:01:42.695Z,1009.43
2017-05-02T03:02:23.452Z,1009.44
2017-05-02T03:03:04.207Z,1009.41
2017-05-02T03:03:44.856Z,1009.45
2017-05-02T03:04:25.620Z,1009.44
2017-05-02T03:05:06.369Z,1009.42
2017-05-02T03:05:47.024Z,1009.36
2017-05-02T03:06:27.779Z,1009.37
2017-05-02T03:07:08.427Z,1009.33
2017-05-02T03:07:49.188Z,1009.35
2017-05-02T03:08:29.839Z,1009.34
2017-05-02T03:09:10.600Z,1009.35
2017-05-02T03:09:51.350Z,1009.33
2017-05-02T03:10:32.107Z,1009.34
2017-05-02T03:11:12.688Z,1009.38
2017-05-02T03:11:53.354Z,1009.35
2017-05-02T03:12:34.064Z,1009.33
2017-05-02T03:13:15.230Z,1009.33
2017-05-02T03:13:55.785Z,1009.35
2017-05-02T03:14:36.487Z,1009.35
2017-05-02T03:15:17.185Z,1009.33
2017-05-02T03:15:57.769Z,1009.31
2017-05-02T03:16:38.901Z,1009.32
2017-05-02T03:17:19.662Z,1009.29
2017-05-02T03:18:00.413Z,1009.31
2017-05-02T03:18:41.170Z,1009.35
2017-05-02T03:19:21.929Z,1009.35
2017-05-02T03:20:02.680Z,1009.37
2017-05-02T03:20:43.435Z,1009.36
2017-05-02T03:21:24.194Z,1009.39
2017-05-02T03:22:04.947Z,1009.34
2017-05-02T03:22:45.627Z,1009.39
2017-05-02T03:23:26.356Z,1009.37
2017-05-02T03:24:07.114Z,1009.37
2017-05-02T03:24:47.868Z,1009.38
2017-05-02T03:25:28.624Z,1009.37
2017-05-02T03:26:09.200Z,1009.34
2017-05-02T03:26:49.878Z,1009.35
2017-05-02T03:27:30.583Z,1009.34
2017-05-02T03:28:11.340Z,1009.36
2017-05-02T03:28:51.915Z,1009.39
2017-05-02T03:29:32.593Z,1009.38
2017-05-02T03:30:13.220Z,1009.34
2017-05-02T03:30:53.950Z,1009.38
2017-05-02T03:31:34.705Z,1009.38
2017-05-02T03:32:15.475Z,1009.32
2017-05-02T03:32:56.218Z,1009.36
2017-05-02T03:33:37.074Z,1009.31
2017-05-02T03:34:17.826Z,1009.29
2017-05-02T03:34:58.510Z,1009.29
2017-05-02T03:35:39.238Z,1009.27
2017-05-02T03:36:19.993Z,1009.33
2017-05-02T03:37:00.746Z,1009.3
2017-05-02T03:37:41.916Z,1009.31
2017-05-02T03:38:22.669Z,1009.33
2017-05-02T03:39:03.424Z,1009.32
2017-05-02T03:39:44.181Z,1009.31
2017-05-02T03:40:24.934Z,1009.31
2017-05-02T03:41:05.695Z,1009.32
2017-05-02T03:41:46.446Z,1009.31
2017-05-02T03:42:27.203Z,1009.28
2017-05-02T03:43:07.857Z,1009.3
2017-05-02T03:43:48.710Z,1009.31
2017-05-02T03:44:29.468Z,1009.28
2017-05-02T03:45:10.225Z,1009.27
2017-05-02T03:45:50.789Z,1009.27
2017-05-02T03:46:31.483Z,1009.24
2017-05-02T03:47:12.079Z,1009.21
2017-05-02T03:47:53.243Z,1009.22
2017-05-02T03:48:33.820Z,1009.22
2017-05-02T03:49:14.504Z,1009.19
2017-05-02T03:49:55.197Z,1009.2
2017-05-02T03:50:35.961Z,1009.21
2017-05-02T03:51:16.545Z,1009.21
2017-05-02T03:51:57.260Z,1009.2
2017-05-02T03:52:38.013Z,1009.2
2017-05-02T03:53:18.584Z,1009.22
2017-05-02T03:53:59.336Z,1009.23
2017-05-02T03:54:40.085Z,1009.24
2017-05-02T03:55:20.651Z,1009.26
2017-05-02T03:56:01.379Z,1009.22
2017-05-02T03:56:42.145Z,1009.25
2017-05-02T03:57:22.802Z,1009.23
2017-05-02T03:58:03.538Z,1009.24
2017-05-02T03:58:44.292Z,1009.23
2017-05-02T03:59:25.054Z,1009.18
2017-05-02T04:00:05.710Z,1009.23
2017-05-02T04:00:46.465Z,1009.21
2017-05-02T04:01:27.638Z,1009.26
2017-05-02T04:02:08.209Z,1009.23
2017-05-02T04:02:48.891Z,1009.26
2017-05-02T04:03:29.601Z,1009.26
2017-05-02T04:04:10.351Z,1009.24
2017-05-02T04:04:50.914Z,1009.21
2017-05-02T04:05:31.638Z,1009.25
2017-05-02T04:06:12.411Z,1009.23
2017-05-02T04:06:54.417Z,1009.25
2017-05-02T04:07:35.147Z,1009.28
2017-05-02T04:08:15.898Z,1009.28
2017-05-02T04:08:56.651Z,1009.27
2017-05-02T04:09:37.483Z,1009.3
2017-05-02T04:10:18.184Z,1009.32
2017-05-02T04:10:58.917Z,1009.33
2017-05-02T04:11:39.694Z,1009.31
2017-05-02T04:12:20.422Z,1009.33
2017-05-02T04:13:01.193Z,1009.35
2017-05-02T04:13:42.987Z,1009.36
2017-05-02T04:14:23.626Z,1009.36
2017-05-02T04:15:04.403Z,1009.4
2017-05-02T04:15:45.137Z,1009.35
2017-05-02T04:16:25.887Z,1009.36
2017-05-02T04:17:06.643Z,1009.39
2017-05-02T04:17:47.423Z,1009.42
2017-05-02T04:18:28.153Z,1009.41
2017-05-02T04:19:08.929Z,1009.42
2017-05-02T04:19:49.685Z,1009.4
2017-05-02T04:20:30.437Z,1009.39
2017-05-02T04:21:11.187Z,1009.34
2017-05-02T04:21:51.746Z,1009.4
2017-05-02T04:22:32.441Z,1009.41
2017-05-02T04:23:13.147Z,1009.41
2017-05-02T04:23:53.899Z,1009.42
2017-05-02T04:24:34.463Z,1009.42
2017-05-02T04:25:15.155Z,1009.42
2017-05-02T04:25:55.846Z,1009.42
2017-05-02T04:26:36.509Z,1009.38
2017-05-02T04:27:17.270Z,1009.42
2017-05-02T04:27:58.008Z,1009.39
2017-05-02T04:28:38.802Z,1009.43
2017-05-02T04:29:19.539Z,1009.4
2017-05-02T04:30:00.279Z,1009.42
2017-05-02T04:30:41.046Z,1009.46
2017-05-02T04:31:22.830Z,1009.45
2017-05-02T04:32:03.399Z,1009.42
2017-05-02T04:32:45.120Z,1009.46
2017-05-02T04:33:25.917Z,1009.48
2017-05-02T04:34:06.667Z,1009.46
2017-05-02T04:34:47.240Z,1009.46
2017-05-02T04:35:28.039Z,1009.44
2017-05-02T04:36:08.727Z,1009.46
2017-05-02T04:36:49.475Z,1009.45
2017-05-02T04:37:30.027Z,1009.4
2017-05-02T04:38:10.737Z,1009.45
2017-05-02T04:38:51.447Z,1009.43
2017-05-02T04:39:32.189Z,1009.42
2017-05-02T04:40:12.757Z,1009.4
2017-05-02T04:40:53.467Z,1009.42
2017-05-02T04:41:34.130Z,1009.44
2017-05-02T04:42:14.917Z,1009.45
2017-05-02T04:42:55.660Z,1009.39
2017-05-02T04:43:36.412Z,1009.43
2017-05-02T04:44:17.171Z,1009.37
2017-05-02T04:44:57.930Z,1009.39
2017-05-02T04:45:38.681Z,1009.39
2017-05-02T04:46:19.438Z,1009.38
2017-05-02T04:47:00.192Z,1009.37
2017-05-02T04:47:40.949Z,1009.37
2017-05-02T04:48:21.704Z,1009.41
2017-05-02T04:49:02.456Z,1009.4
2017-05-02T04:49:43.211Z,1009.41
2017-05-02T04:50:23.966Z,1009.41
2017-05-02T04:51:04.580Z,1009.44
2017-05-02T04:51:45.268Z,1009.41
2017-05-02T04:52:25.927Z,1009.41
2017-05-02T04:53:06.479Z,1009.43
2017-05-02T04:53:47.229Z,1009.44
2017-05-02T04:54:27.990Z,1009.43
2017-05-02T04:55:08.568Z,1009.46
2017-05-02T04:55:49.382Z,1009.41
2017-05-02T04:56:30.155Z,1009.4
2017-05-02T04:57:10.805Z,1009.44
2017-05-02T04:57:51.518Z,1009.42
2017-05-02T04:58:32.213Z,1009.39
2017-05-02T04:59:12.976Z,1009.42
2017-05-02T04:59:53.618Z,1009.44
2017-05-02T05:00:34.331Z,1009.41
2017-05-02T05:01:15.031Z,1009.41
2017-05-02T05:01:55.784Z,1009.39
2017-05-02T05:02:36.538Z,1009.42
2017-05-02T05:03:17.295Z,1009.43
2017-05-02T05:03:58.045Z,1009.4
2017-05-02T05:04:38.806Z,1009.4
2017-05-02T05:05:19.567Z,1009.43
2017-05-02T05:06:01.029Z,1009.42
2017-05-02T05:06:41.789Z,1009.41
2017-05-02T05:07:22.548Z,1009.4
2017-05-02T05:08:03.301Z,1009.4
2017-05-02T05:08:44.478Z,1009.39
2017-05-02T05:09:25.225Z,1009.39
2017-05-02T05:10:05.875Z,1009.4
2017-05-02T05:10:46.526Z,1009.41
2017-05-02T05:11:27.218Z,1009.41
2017-05-02T05:12:07.831Z,1009.44
2017-05-02T05:12:48.486Z,1009.43
2017-05-02T05:13:29.137Z,1009.42
2017-05-02T05:14:09.791Z,1009.42
2017-05-02T05:14:50.445Z,1009.46
2017-05-02T05:15:31.102Z,1009.48
2017-05-02T05:16:11.755Z,1009.55
2017-05-02T05:16:52.506Z,1009.48
2017-05-02T05:17:33.159Z,1009.48
2017-05-02T05:18:13.813Z,1009.51
2017-05-02T05:18:54.462Z,1009.48
2017-05-02T05:19:35.123Z,1009.48
2017-05-02T05:20:15.773Z,1009.48
2017-05-02T05:20:56.335Z,1009.53
2017-05-02T05:21:36.980Z,1009.48
2017-05-02T05:22:17.638Z,1009.49
2017-05-02T05:22:58.207Z,1009.49
2017-05-02T05:23:39.854Z,1009.49
2017-05-02T05:24:21.741Z,1009.5
2017-05-02T05:25:02.292Z,1009.48
2017-05-02T05:25:42.945Z,1009.47
2017-05-02T05:26:23.594Z,1009.48
2017-05-02T05:27:04.168Z,1009.49
2017-05-02T05:27:44.893Z,1009.49
2017-05-02T05:28:25.560Z,1009.49
2017-05-02T05:29:06.203Z,1009.54
2017-05-02T05:29:46.785Z,1009.5
2017-05-02T05:30:27.362Z,1009.52
2017-05-02T05:31:08.066Z,1009.54
2017-05-02T05:31:48.715Z,1009.49
2017-05-02T05:32:29.272Z,1009.5
2017-05-02T05:33:09.879Z,1009.5
2017-05-02T05:33:50.592Z,1009.51
2017-05-02T05:34:31.234Z,1009.49
2017-05-02T05:35:11.789Z,1009.49
2017-05-02T05:35:52.517Z,1009.47
2017-05-02T05:36:33.198Z,1009.47
2017-05-02T05:37:13.837Z,1009.5
2017-05-02T05:37:54.502Z,1009.49
2017-05-02T05:38:35.150Z,1009.52
2017-05-02T05:39:15.801Z,1009.51
2017-05-02T05:39:56.465Z,1009.53
2017-05-02T05:40:37.107Z,1009.53
2017-05-02T05:41:17.757Z,1009.5
2017-05-02T05:41:58.332Z,1009.47
2017-05-02T05:42:39.014Z,1009.49
2017-05-02T05:43:19.708Z,1009.48
2017-05-02T05:44:00.369Z,1009.47
2017-05-02T05:44:40.946Z,1009.49
2017-05-02T05:45:21.640Z,1009.5
2017-05-02T05:46:02.347Z,1009.47
2017-05-02T05:46:42.986Z,1009.48
2017-05-02T05:47:23.595Z,1009.5
2017-05-02T05:48:04.286Z,1009.52
2017-05-02T05:48:44.940Z,1009.5
2017-05-02T05:49:25.510Z,1009.5
2017-05-02T05:50:06.159Z,1009.48
2017-05-02T05:50:46.791Z,1009.5
2017-05-02T05:51:27.398Z,1009.5
2017-05-02T05:52:07.995Z,1009.5
2017-05-02T05:52:48.651Z,1009.51
2017-05-02T05:53:29.220Z,1009.47
2017-05-02T05:54:09.855Z,1009.47
2017-05-02T05:54:50.541Z,1009.46
2017-05-02T05:55:31.089Z,1009.46
2017-05-02T05:56:11.713Z,1009.47
2017-05-02T05:56:52.363Z,1009.47
2017-05-02T05:57:32.972Z,1009.5
2017-05-02T05:58:13.621Z,1009.49
2017-05-02T05:58:54.253Z,1009.49
2017-05-02T05:59:36.104Z,1009.46
2017-05-02T06:00:16.678Z,1009.46
2017-05-02T06:00:57.362Z,1009.46
2017-05-02T06:01:38.070Z,1009.43
2017-05-02T06:02:18.718Z,1009.46
2017-05-02T06:02:59.266Z,1009.42
2017-05-02T06:03:39.873Z,1009.38
2017-05-02T06:04:21.593Z,1009.43
2017-05-02T06:05:02.251Z,1009.33
2017-05-02T06:05:42.825Z,1009.36
2017-05-02T06:06:25.472Z,1009.43
2017-05-02T06:07:06.157Z,1009.37
2017-05-02T06:07:46.722Z,1009.37
2017-05-02T06:08:28.387Z,1009.39
2017-05-02T06:09:09.032Z,1009.38
2017-05-02T06:09:49.600Z,1009.38
2017-05-02T06:10:31.266Z,1009.36
2017-05-02T06:11:11.921Z,1009.34
2017-05-02T06:11:52.667Z,1009.32
2017-05-02T06:12:33.426Z,1009.35
2017-05-02T06:13:14.183Z,1009.33
2017-05-02T06:13:54.948Z,1009.31
2017-05-02T06:14:36.609Z,1009.36
2017-05-02T06:15:17.270Z,1009.37
2017-05-02T06:15:57.888Z,1009.35
2017-05-02T06:16:38.533Z,1009.37
2017-05-02T06:17:19.233Z,1009.36
2017-05-02T06:17:59.881Z,1009.4
2017-05-02T06:18:40.444Z,1009.33
2017-05-02T06:19:21.135Z,1009.36
2017-05-02T06:20:01.848Z,1009.33
2017-05-02T06:20:42.494Z,1009.31
2017-05-02T06:21:23.070Z,1009.35
2017-05-02T06:22:03.699Z,1009.38
2017-05-02T06:22:45.381Z,1009.35
2017-05-02T06:23:25.976Z,1009.37
2017-05-02T06:24:06.688Z,1009.34
2017-05-02T06:24:47.334Z,1009.37
2017-05-02T06:25:27.909Z,1009.34
2017-05-02T06:26:08.566Z,1009.37
2017-05-02T06:26:49.293Z,1009.33
2017-05-02T06:27:29.916Z,1009.33
2017-05-02T06:28:10.583Z,1009.35
2017-05-02T06:28:51.247Z,1009.35
2017-05-02T06:29:31.821Z,1009.32
2017-05-02T06:30:12.463Z,1009.35
2017-05-02T06:30:53.112Z,1009.34
2017-05-02T06:31:33.711Z,1009.36
2017-05-02T06:32:14.321Z,1009.34
2017-05-02T06:33:00.716Z,1009.36
2017-05-02T06:33:41.352Z,1009.34
2017-05-02T06:34:24.073Z,1009.33
2017-05-02T06:35:04.725Z,1009.37
2017-05-02T06:35:45.369Z,1009.34
2017-05-02T06:36:26.009Z,1009.36
2017-05-02T06:37:06.678Z,1009.35
2017-05-02T06:37:47.525Z,1009.34
2017-05-02T06:38:28.180Z,1009.31
2017-05-02T06:39:08.831Z,1009.34
2017-05-02T06:39:51.561Z,1009.32
2017-05-02T06:40:33.212Z,1009.3
2017-05-02T06:41:13.794Z,1009.35
2017-05-02T06:41:54.892Z,1009.35
2017-05-02T06:42:36.617Z,1009.33
2017-05-02T06:43:17.254Z,1009.33
2017-05-02T06:43:57.831Z,1009.38
2017-05-02T06:44:39.549Z,1009.36
2017-05-02T06:45:20.645Z,1009.37
2017-05-02T06:46:01.301Z,1009.42
2017-05-02T06:46:41.883Z,1009.39
2017-05-02T06:47:22.575Z,1009.39
2017-05-02T06:48:03.381Z,1009.39
2017-05-02T06:48:44.112Z,1009.41
2017-05-02T06:49:24.696Z,1009.42
2017-05-02T06:50:05.366Z,1009.42
2017-05-02T06:50:46.089Z,1009.41
2017-05-02T06:51:26.723Z,1009.44
2017-05-02T06:52:07.381Z,1009.43
2017-05-02T06:52:48.038Z,1009.47
2017-05-02T06:53:28.682Z,1009.44
2017-05-02T06:54:09.334Z,1009.47
2017-05-02T06:54:50.002Z,1009.45
2017-05-02T06:55:30.654Z,1009.44
2017-05-02T06:56:11.302Z,1009.47
2017-05-02T06:56:51.855Z,1009.46
2017-05-02T06:57:32.578Z,1009.49
2017-05-02T06:58:13.266Z,1009.45
2017-05-02T06:58:53.907Z,1009.48
2017-05-02T06:59:34.507Z,1009.47
2017-05-02T07:00:15.322Z,1009.47
2017-05-02T07:00:56.013Z,1009.48
2017-05-02T07:01:36.831Z,1009.51
2017-05-02T07:02:17.578Z,1009.51
2017-05-02T07:02:58.236Z,1009.53
2017-05-02T07:03:38.885Z,1009.51
2017-05-02T07:04:19.543Z,1009.51
2017-05-02T07:05:00.322Z,1009.51
2017-05-02T07:05:40.947Z,1009.52
2017-05-02T07:06:21.811Z,1009.54
2017-05-02T07:07:02.708Z,1009.51
2017-05-02T07:07:45.003Z,1009.53
2017-05-02T07:08:26.218Z,1009.48
2017-05-02T07:09:07.087Z,1009.51
2017-05-02T07:09:47.849Z,1009.52
2017-05-02T07:10:28.493Z,1009.49
2017-05-02T07:11:09.154Z,1009.51
2017-05-02T07:11:49.718Z,1009.48
2017-05-02T07:12:30.388Z,1009.52
2017-05-02T07:13:11.088Z,1009.49
2017-05-02T07:13:51.757Z,1009.48
2017-05-02T07:14:32.323Z,1009.51
2017-05-02T07:15:13.020Z,1009.49
2017-05-02T07:15:53.716Z,1009.49
2017-05-02T07:16:34.368Z,1009.51
2017-05-02T07:17:15.021Z,1009.49
2017-05-02T07:17:55.675Z,1009.48
2017-05-02T07:18:36.326Z,1009.5
2017-05-02T07:19:16.979Z,1009.46
2017-05-02T07:19:58.655Z,1009.49
2017-05-02T07:20:39.309Z,1009.52
2017-05-02T07:21:19.895Z,1009.52
2017-05-02T07:22:00.524Z,1009.51
2017-05-02T07:22:41.174Z,1009.54
2017-05-02T07:23:21.733Z,1009.55
2017-05-02T07:24:02.394Z,1009.52
2017-05-02T07:24:43.020Z,1009.57
2017-05-02T07:25:23.585Z,1009.57
2017-05-02T07:26:04.223Z,1009.56
2017-05-02T07:26:44.874Z,1009.58
2017-05-02T07:27:25.467Z,1009.58
2017-05-02T07:28:06.135Z,1009.6
2017-05-02T07:28:46.835Z,1009.56
2017-05-02T07:29:27.490Z,1009.57
2017-05-02T07:30:08.061Z,1009.56
2017-05-02T07:30:48.688Z,1009.55
2017-05-02T07:31:29.345Z,1009.54
2017-05-02T07:32:09.995Z,1009.54
2017-05-02T07:32:50.658Z,1009.55
2017-05-02T07:33:32.348Z,1009.53
2017-05-02T07:34:13.002Z,1009.58
2017-05-02T07:34:53.642Z,1009.56
2017-05-02T07:35:34.284Z,1009.58
2017-05-02T07:36:14.940Z,1009.59
2017-05-02T07:36:55.591Z,1009.6
2017-05-02T07:37:36.245Z,1009.61
2017-05-02T07:38:16.998Z,1009.58
2017-05-02T07:38:57.653Z,1009.62
2017-05-02T07:39:38.306Z,1009.64
2017-05-02T07:40:18.962Z,1009.65
2017-05-02T07:40:59.623Z,1009.64
2017-05-02T07:41:40.279Z,1009.66
2017-05-02T07:42:20.928Z,1009.74
2017-05-02T07:43:01.572Z,1009.72
2017-05-02T07:43:42.228Z,1009.72
2017-05-02T07:44:22.879Z,1009.73
2017-05-02T07:45:03.541Z,1009.73
2017-05-02T07:45:44.183Z,1009.77
2017-05-02T07:46:24.770Z,1009.8
2017-05-02T07:47:05.500Z,1009.84
2017-05-02T07:47:46.149Z,1009.83
2017-05-02T07:48:26.705Z,1009.82
2017-05-02T07:49:07.347Z,1009.82
2017-05-02T07:49:48.001Z,1009.83
2017-05-02T07:50:28.604Z,1009.85
2017-05-02T07:51:09.307Z,1009.82
2017-05-02T07:51:49.961Z,1009.84
2017-05-02T07:52:30.610Z,1009.85
2017-05-02T07:53:11.286Z,1009.87
2017-05-02T07:53:51.921Z,1009.88
2017-05-02T07:54:32.573Z,1009.88
2017-05-02T07:55:13.227Z,1009.92
2017-05-02T07:55:53.880Z,1009.94
2017-05-02T07:56:34.460Z,1009.95
2017-05-02T07:57:15.083Z,1009.96
2017-05-02T07:57:55.642Z,1009.93
2017-05-02T07:58:36.345Z,1009.97
2017-05-02T07:59:17.037Z,1009.98
2017-05-02T07:59:57.695Z,1009.99
2017-05-02T08:00:38.248Z,1010.01
2017-05-02T08:01:18.981Z,1010.02
2017-05-02T08:01:59.649Z,1010.01
2017-05-02T08:02:40.309Z,1010.03
2017-05-02T08:03:20.866Z,1009.96
2017-05-02T08:04:01.497Z,1009.99
2017-05-02T08:04:43.266Z,1010.02
2017-05-02T08:05:24.009Z,1010.03
2017-05-02T08:06:04.702Z,1010.04
2017-05-02T08:06:45.349Z,1010.01
2017-05-02T08:07:26.517Z,1009.99
2017-05-02T08:08:07.168Z,1010.05
2017-05-02T08:08:47.818Z,1010.04
2017-05-02T08:09:28.574Z,1010.03
2017-05-02T08:10:09.349Z,1010.01
2017-05-02T08:10:49.999Z,1010.01
2017-05-02T08:11:30.635Z,1010.03
2017-05-02T08:12:11.289Z,1010.04
2017-05-02T08:12:51.943Z,1010.05
2017-05-02T08:13:32.718Z,1010.06
2017-05-02T08:14:13.452Z,1010.06